Troutdale, Oregon
Current Conditions -  °F | °C
As of 7:53 AM on Friday 28 Nov 2014 (Local Time) from KTTD Reporting Station
Overcast Overcast  
Wind Chill: 55°   Ceiling: 1800
Heat Index: 55°   Visibility: 9mi
Dew Point: 52°   Wind: 9mph
Humidity: 89%   Direction: 200°SSW
Pressure: 29.63"   Gusts: 23mph
Location:  45.54°N, 122.38°W
Report Text: KTTD 281553Z 20008G20KT 9SM FEW013 BKN018 OVC033 13/11 A2963 RMK AO2 RAE45 SLP033 P0003 T01280111
Loading
Personal Weather Stations






























Interactive Weather Map New forecast layout! Learn more

10-Day Weather Forecast

Advertisements
Track Severe Weather on mobile